sensor_id;sensor_type;location;lat;lon;timestamp;pressure;altitude;pressure_sealevel;temperature;humidity
10006;BME280;5042;42.626;23.382;2023-06-04T00:02:20;94542.63;;;16.54;100.00
10006;BME280;5042;42.626;23.382;2023-06-04T00:04:46;94548.94;;;16.53;100.00
10006;BME280;5042;42.626;23.382;2023-06-04T00:07:13;94571.09;;;16.59;100.00
10006;BME280;5042;42.626;23.382;2023-06-04T00:09:40;94569.44;;;16.58;100.00
10006;BME280;5042;42.626;23.382;2023-06-04T00:12:09;94569.91;;;16.55;100.00
10006;BME280;5042;42.626;23.382;2023-06-04T00:14:36;94573.50;;;16.61;100.00
10006;BME280;5042;42.626;23.382;2023-06-04T00:17:03;94564.09;;;16.65;100.00
10006;BME280;5042;42.626;23.382;2023-06-04T00:19:30;94571.69;;;16.61;100.00
10006;BME280;5042;42.626;23.382;2023-06-04T00:21:56;94569.84;;;16.43;100.00
10006;BME280;5042;42.626;23.382;2023-06-04T00:24:23;94577.47;;;16.33;100.00
10006;BME280;5042;42.626;23.382;2023-06-04T00:26:50;94569.81;;;16.25;100.00
10006;BME280;5042;42.626;23.382;2023-06-04T00:29:18;94563.50;;;16.07;100.00
10006;BME280;5042;42.626;23.382;2023-06-04T00:31:45;94569.53;;;16.15;100.00
10006;BME280;5042;42.626;23.382;2023-06-04T00:34:11;94569.75;;;16.13;100.00
10006;BME280;5042;42.626;23.382;2023-06-04T00:36:39;94567.34;;;16.11;100.00
10006;BME280;5042;42.626;23.382;2023-06-04T00:39:06;94563.94;;;16.04;100.00
10006;BME280;5042;42.626;23.382;2023-06-04T00:41:33;94571.22;;;16.09;100.00
10006;BME280;5042;42.626;23.382;2023-06-04T00:43:59;94564.75;;;16.05;100.00
10006;BME280;5042;42.626;23.382;2023-06-04T00:46:28;94563.44;;;16.14;100.00
10006;BME280;5042;42.626;23.382;2023-06-04T00:48:56;94541.00;;;15.98;100.00
10006;BME280;5042;42.626;23.382;2023-06-04T00:51:23;94566.91;;;16.33;100.00
10006;BME280;5042;42.626;23.382;2023-06-04T00:53:51;94563.81;;;16.36;100.00
10006;BME280;5042;42.626;23.382;2023-06-04T00:56:18;94546.00;;;16.25;100.00
10006;BME280;5042;42.626;23.382;2023-06-04T00:58:45;94558.22;;;16.44;100.00
10006;BME280;5042;42.626;23.382;2023-06-04T01:01:29;94554.09;;;16.48;100.00
10006;BME280;5042;42.626;23.382;2023-06-04T01:04:00;94560.84;;;16.44;100.00
10006;BME280;5042;42.626;23.382;2023-06-04T01:06:32;94561.31;;;16.41;100.00
10006;BME280;5042;42.626;23.382;2023-06-04T01:09:02;94564.69;;;16.48;100.00
10006;BME280;5042;42.626;23.382;2023-06-04T01:11:31;94566.16;;;16.44;100.00
10006;BME280;5042;42.626;23.382;2023-06-04T01:13:59;94569.09;;;16.54;100.00
10006;BME280;5042;42.626;23.382;2023-06-04T01:16:30;94566.31;;;16.49;100.00
10006;BME280;5042;42.626;23.382;2023-06-04T01:19:01;94559.03;;;16.45;100.00
10006;BME280;5042;42.626;23.382;2023-06-04T01:21:29;94559.97;;;16.32;100.00
10006;BME280;5042;42.626;23.382;2023-06-04T01:24:00;94565.78;;;16.22;100.00
10006;BME280;5042;42.626;23.382;2023-06-04T01:26:29;94551.97;;;16.20;100.00
10006;BME280;5042;42.626;23.382;2023-06-04T01:28:57;94564.97;;;16.22;100.00
10006;BME280;5042;42.626;23.382;2023-06-04T01:31:25;94581.53;;;16.36;100.00
10006;BME280;5042;42.626;23.382;2023-06-04T01:33:54;94564.13;;;16.28;100.00
10006;BME280;5042;42.626;23.382;2023-06-04T01:36:21;94585.41;;;16.33;100.00
10006;BME280;5042;42.626;23.382;2023-06-04T01:38:48;94592.75;;;16.31;100.00
10006;BME280;5042;42.626;23.382;2023-06-04T01:41:15;94593.03;;;16.23;100.00
10006;BME280;5042;42.626;23.382;2023-06-04T01:43:42;94592.63;;;16.26;100.00
10006;BME280;5042;42.626;23.382;2023-06-04T01:46:09;94600.09;;;16.29;100.00
10006;BME280;5042;42.626;23.382;2023-06-04T01:48:36;94595.91;;;16.21;100.00
10006;BME280;5042;42.626;23.382;2023-06-04T01:51:05;94595.13;;;16.21;100.00
10006;BME280;5042;42.626;23.382;2023-06-04T01:53:32;94594.78;;;16.10;100.00
10006;BME280;5042;42.626;23.382;2023-06-04T01:55:59;94595.28;;;16.01;100.00
10006;BME280;5042;42.626;23.382;2023-06-04T01:58:26;94593.44;;;16.01;100.00
10006;BME280;5042;42.626;23.382;2023-06-04T02:00:54;94588.44;;;15.93;100.00
10006;BME280;5042;42.626;23.382;2023-06-04T02:03:21;94545.53;;;15.66;100.00
10006;BME280;5042;42.626;23.382;2023-06-04T02:05:48;94591.63;;;16.02;100.00
10006;BME280;5042;42.626;23.382;2023-06-04T02:08:16;94587.41;;;15.94;100.00
10006;BME280;5042;42.626;23.382;2023-06-04T02:10:45;94582.13;;;15.94;100.00
10006;BME280;5042;42.626;23.382;2023-06-04T02:13:12;94603.41;;;15.81;100.00
10006;BME280;5042;42.626;23.382;2023-06-04T02:15:39;94594.66;;;15.80;100.00
10006;BME280;5042;42.626;23.382;2023-06-04T02:18:14;94587.00;;;15.65;100.00
10006;BME280;5042;42.626;23.382;2023-06-04T02:20:42;94603.31;;;15.62;100.00
10006;BME280;5042;42.626;23.382;2023-06-04T02:23:09;94599.72;;;15.50;100.00
10006;BME280;5042;42.626;23.382;2023-06-04T02:25:37;94611.19;;;15.37;100.00
10006;BME280;5042;42.626;23.382;2023-06-04T02:28:04;94617.50;;;15.36;100.00
10006;BME280;5042;42.626;23.382;2023-06-04T02:30:31;94616.22;;;15.45;100.00
10006;BME280;5042;42.626;23.382;2023-06-04T02:32:57;94624.78;;;15.41;100.00
10006;BME280;5042;42.626;23.382;2023-06-04T02:35:26;94630.16;;;15.59;100.00
10006;BME280;5042;42.626;23.382;2023-06-04T02:37:53;94632.72;;;15.73;100.00
10006;BME280;5042;42.626;23.382;2023-06-04T02:40:22;94634.09;;;15.82;100.00
10006;BME280;5042;42.626;23.382;2023-06-04T02:42:50;94636.13;;;15.80;100.00
10006;BME280;5042;42.626;23.382;2023-06-04T02:45:16;94635.47;;;15.84;100.00
10006;BME280;5042;42.626;23.382;2023-06-04T02:47:43;94634.41;;;15.92;100.00
10006;BME280;5042;42.626;23.382;2023-06-04T02:50:11;94614.09;;;15.93;100.00
10006;BME280;5042;42.626;23.382;2023-06-04T02:52:38;94639.16;;;16.08;100.00
10006;BME280;5042;42.626;23.382;2023-06-04T02:55:06;94636.94;;;16.05;100.00
10006;BME280;5042;42.626;23.382;2023-06-04T02:57:34;94629.50;;;16.21;100.00
10006;BME280;5042;42.626;23.382;2023-06-04T03:00:03;94633.47;;;16.30;100.00
10006;BME280;5042;42.626;23.382;2023-06-04T03:02:37;94628.34;;;16.35;100.00
10006;BME280;5042;42.626;23.382;2023-06-04T03:05:04;94638.47;;;16.38;100.00
10006;BME280;5042;42.626;23.382;2023-06-04T03:07:31;94605.84;;;16.44;100.00
10006;BME280;5042;42.626;23.382;2023-06-04T03:09:58;94612.47;;;16.35;100.00
10006;BME280;5042;42.626;23.382;2023-06-04T03:12:25;94615.41;;;16.45;100.00
10006;BME280;5042;42.626;23.382;2023-06-04T03:14:52;94604.69;;;16.59;100.00
10006;BME280;5042;42.626;23.382;2023-06-04T03:17:20;94605.34;;;16.54;100.00
10006;BME280;5042;42.626;23.382;2023-06-04T03:19:46;94606.06;;;16.43;100.00
10006;BME280;5042;42.626;23.382;2023-06-04T03:22:14;94556.38;;;16.08;100.00
10006;BME280;5042;42.626;23.382;2023-06-04T03:24:41;94589.06;;;16.32;100.00
10006;BME280;5042;42.626;23.382;2023-06-04T03:27:08;94600.69;;;16.31;100.00
10006;BME280;5042;42.626;23.382;2023-06-04T03:29:36;94619.13;;;16.19;100.00
10006;BME280;5042;42.626;23.382;2023-06-04T03:32:03;94614.34;;;16.09;100.00
10006;BME280;5042;42.626;23.382;2023-06-04T03:34:32;94625.56;;;16.05;100.00
10006;BME280;5042;42.626;23.382;2023-06-04T03:36:58;94628.81;;;16.07;100.00
10006;BME280;5042;42.626;23.382;2023-06-04T03:39:26;94629.75;;;16.13;100.00
10006;BME280;5042;42.626;23.382;2023-06-04T03:41:53;94622.59;;;15.95;100.00
10006;BME280;5042;42.626;23.382;2023-06-04T03:44:20;94636.03;;;15.93;100.00
10006;BME280;5042;42.626;23.382;2023-06-04T03:46:47;94637.31;;;15.84;100.00
10006;BME280;5042;42.626;23.382;2023-06-04T03:49:14;94659.31;;;15.78;100.00
10006;BME280;5042;42.626;23.382;2023-06-04T03:51:44;94675.38;;;15.83;100.00
10006;BME280;5042;42.626;23.382;2023-06-04T03:54:11;94661.16;;;15.77;100.00
10006;BME280;5042;42.626;23.382;2023-06-04T03:56:42;94676.13;;;15.90;100.00
10006;BME280;5042;42.626;23.382;2023-06-04T03:59:09;94671.88;;;15.82;100.00
10006;BME280;5042;42.626;23.382;2023-06-04T04:01:36;94674.34;;;15.84;100.00
10006;BME280;5042;42.626;23.382;2023-06-04T04:04:04;94667.84;;;15.80;100.00
10006;BME280;5042;42.626;23.382;2023-06-04T04:06:30;94679.94;;;15.94;100.00
10006;BME280;5042;42.626;23.382;2023-06-04T04:08:59;94687.88;;;15.94;100.00
10006;BME280;5042;42.626;23.382;2023-06-04T04:11:25;94692.16;;;15.95;100.00
10006;BME280;5042;42.626;23.382;2023-06-04T04:13:52;94688.06;;;15.99;100.00
10006;BME280;5042;42.626;23.382;2023-06-04T04:16:19;94686.72;;;15.90;100.00
10006;BME280;5042;42.626;23.382;2023-06-04T04:18:46;94681.66;;;15.82;100.00
10006;BME280;5042;42.626;23.382;2023-06-04T04:21:12;94688.94;;;15.86;100.00
10006;BME280;5042;42.626;23.382;2023-06-04T04:23:39;94689.06;;;15.98;100.00
10006;BME280;5042;42.626;23.382;2023-06-04T04:26:08;94690.03;;;16.04;100.00
10006;BME280;5042;42.626;23.382;2023-06-04T04:28:35;94691.78;;;16.17;100.00
10006;BME280;5042;42.626;23.382;2023-06-04T04:31:02;94698.44;;;16.26;100.00
10006;BME280;5042;42.626;23.382;2023-06-04T04:33:29;94695.06;;;16.37;100.00
10006;BME280;5042;42.626;23.382;2023-06-04T04:35:58;94696.25;;;16.41;100.00
10006;BME280;5042;42.626;23.382;2023-06-04T04:38:26;94662.88;;;16.40;100.00
10006;BME280;5042;42.626;23.382;2023-06-04T04:40:54;94660.00;;;16.42;100.00
10006;BME280;5042;42.626;23.382;2023-06-04T04:43:30;94652.88;;;16.24;100.00
10006;BME280;5042;42.626;23.382;2023-06-04T04:45:57;94663.63;;;16.47;100.00
10006;BME280;5042;42.626;23.382;2023-06-04T04:48:24;94654.06;;;16.46;100.00
10006;BME280;5042;42.626;23.382;2023-06-04T04:50:51;94654.69;;;16.67;100.00
10006;BME280;5042;42.626;23.382;2023-06-04T04:53:18;94656.19;;;16.56;100.00
10006;BME280;5042;42.626;23.382;2023-06-04T04:55:45;94659.22;;;16.60;100.00
10006;BME280;5042;42.626;23.382;2023-06-04T04:58:12;94659.75;;;16.68;100.00
10006;BME280;5042;42.626;23.382;2023-06-04T05:00:41;94662.16;;;16.70;100.00
10006;BME280;5042;42.626;23.382;2023-06-04T05:03:07;94660.72;;;16.74;100.00
10006;BME280;5042;42.626;23.382;2023-06-04T05:05:34;94660.72;;;16.74;100.00
10006;BME280;5042;42.626;23.382;2023-06-04T05:08:01;94662.31;;;16.75;100.00
10006;BME280;5042;42.626;23.382;2023-06-04T05:10:28;94662.06;;;16.83;100.00
10006;BME280;5042;42.626;23.382;2023-06-04T05:12:55;94649.84;;;16.82;100.00
10006;BME280;5042;42.626;23.382;2023-06-04T05:15:23;94658.97;;;16.86;100.00
10006;BME280;5042;42.626;23.382;2023-06-04T05:17:51;94668.66;;;16.74;100.00
10006;BME280;5042;42.626;23.382;2023-06-04T05:20:18;94650.56;;;16.71;100.00
10006;BME280;5042;42.626;23.382;2023-06-04T05:22:46;94672.81;;;16.63;100.00
10006;BME280;5042;42.626;23.382;2023-06-04T05:25:14;94661.41;;;16.44;100.00
10006;BME280;5042;42.626;23.382;2023-06-04T05:27:40;94671.41;;;16.42;100.00
10006;BME280;5042;42.626;23.382;2023-06-04T05:30:09;94677.28;;;16.44;100.00
10006;BME280;5042;42.626;23.382;2023-06-04T05:32:36;94670.84;;;16.59;100.00
10006;BME280;5042;42.626;23.382;2023-06-04T05:35:08;94681.44;;;16.59;100.00
10006;BME280;5042;42.626;23.382;2023-06-04T05:37:37;94673.66;;;16.64;100.00
10006;BME280;5042;42.626;23.382;2023-06-04T05:40:06;94671.50;;;16.72;100.00
10006;BME280;5042;42.626;23.382;2023-06-04T05:42:34;94678.78;;;16.77;100.00
10006;BME280;5042;42.626;23.382;2023-06-04T05:45:01;94684.53;;;16.74;100.00
10006;BME280;5042;42.626;23.382;2023-06-04T05:47:28;94685.34;;;16.74;100.00
10006;BME280;5042;42.626;23.382;2023-06-04T05:49:55;94652.00;;;16.48;100.00
10006;BME280;5042;42.626;23.382;2023-06-04T05:52:24;94692.66;;;16.79;100.00
10006;BME280;5042;42.626;23.382;2023-06-04T05:54:50;94693.63;;;16.85;100.00
10006;BME280;5042;42.626;23.382;2023-06-04T05:57:17;94695.50;;;16.78;100.00
10006;BME280;5042;42.626;23.382;2023-06-04T05:59:44;94692.13;;;16.89;100.00
10006;BME280;5042;42.626;23.382;2023-06-04T06:02:11;94698.75;;;16.98;100.00
10006;BME280;5042;42.626;23.382;2023-06-04T06:04:38;94697.00;;;16.92;100.00
10006;BME280;5042;42.626;23.382;2023-06-04T06:07:05;94705.91;;;16.98;100.00
10006;BME280;5042;42.626;23.382;2023-06-04T06:09:33;94711.78;;;17.00;100.00
10006;BME280;5042;42.626;23.382;2023-06-04T06:12:01;94709.00;;;16.94;100.00
10006;BME280;5042;42.626;23.382;2023-06-04T06:14:27;94706.88;;;16.85;100.00
10006;BME280;5042;42.626;23.382;2023-06-04T06:16:54;94708.41;;;16.92;100.00
10006;BME280;5042;42.626;23.382;2023-06-04T06:19:21;94712.91;;;16.92;100.00
10006;BME280;5042;42.626;23.382;2023-06-04T06:21:48;94708.81;;;16.89;100.00
10006;BME280;5042;42.626;23.382;2023-06-04T06:24:15;94721.25;;;16.89;100.00
10006;BME280;5042;42.626;23.382;2023-06-04T06:26:43;94704.31;;;16.71;100.00
10006;BME280;5042;42.626;23.382;2023-06-04T06:29:10;94708.94;;;16.76;100.00
10006;BME280;5042;42.626;23.382;2023-06-04T06:31:36;94706.75;;;16.73;100.00
10006;BME280;5042;42.626;23.382;2023-06-04T06:34:03;94715.25;;;16.75;100.00
10006;BME280;5042;42.626;23.382;2023-06-04T06:36:30;94720.75;;;16.80;100.00
10006;BME280;5042;42.626;23.382;2023-06-04T06:38:58;94718.50;;;16.77;100.00
10006;BME280;5042;42.626;23.382;2023-06-04T06:41:25;94719.75;;;17.00;100.00
10006;BME280;5042;42.626;23.382;2023-06-04T06:43:53;94718.41;;;17.09;100.00
10006;BME280;5042;42.626;23.382;2023-06-04T06:46:20;94716.78;;;17.08;100.00
10006;BME280;5042;42.626;23.382;2023-06-04T06:48:47;94716.19;;;17.06;100.00
10006;BME280;5042;42.626;23.382;2023-06-04T06:51:14;94715.66;;;17.15;100.00
10006;BME280;5042;42.626;23.382;2023-06-04T06:53:41;94719.44;;;17.26;100.00
10006;BME280;5042;42.626;23.382;2023-06-04T06:56:08;94720.69;;;17.24;100.00
10006;BME280;5042;42.626;23.382;2023-06-04T06:58:35;94729.38;;;17.12;100.00
10006;BME280;5042;42.626;23.382;2023-06-04T07:01:03;94727.25;;;17.21;100.00
10006;BME280;5042;42.626;23.382;2023-06-04T07:03:31;94717.09;;;17.18;100.00
10006;BME280;5042;42.626;23.382;2023-06-04T07:05:58;94724.28;;;17.29;100.00
10006;BME280;5042;42.626;23.382;2023-06-04T07:08:25;94723.47;;;17.29;100.00
10006;BME280;5042;42.626;23.382;2023-06-04T07:10:51;94726.34;;;17.27;100.00
10006;BME280;5042;42.626;23.382;2023-06-04T07:13:18;94729.97;;;17.33;100.00
10006;BME280;5042;42.626;23.382;2023-06-04T07:15:45;94729.88;;;17.40;100.00
10006;BME280;5042;42.626;23.382;2023-06-04T07:18:13;94734.56;;;17.56;100.00
10006;BME280;5042;42.626;23.382;2023-06-04T07:20:40;94741.63;;;17.62;100.00
10006;BME280;5042;42.626;23.382;2023-06-04T07:23:07;94738.09;;;17.68;100.00
10006;BME280;5042;42.626;23.382;2023-06-04T07:25:34;94744.75;;;17.89;100.00
10006;BME280;5042;42.626;23.382;2023-06-04T07:28:00;94749.69;;;17.86;100.00
10006;BME280;5042;42.626;23.382;2023-06-04T07:30:29;94741.06;;;17.90;100.00
10006;BME280;5042;42.626;23.382;2023-06-04T07:32:56;94745.31;;;17.91;100.00
10006;BME280;5042;42.626;23.382;2023-06-04T07:35:24;94754.16;;;18.04;100.00
10006;BME280;5042;42.626;23.382;2023-06-04T07:37:51;94749.53;;;17.99;100.00
10006;BME280;5042;42.626;23.382;2023-06-04T07:40:18;94756.22;;;18.01;100.00
10006;BME280;5042;42.626;23.382;2023-06-04T07:42:46;94760.06;;;18.17;100.00
10006;BME280;5042;42.626;23.382;2023-06-04T07:45:13;94755.97;;;18.45;100.00
10006;BME280;5042;42.626;23.382;2023-06-04T07:47:40;94704.59;;;18.28;100.00
10006;BME280;5042;42.626;23.382;2023-06-04T07:50:08;94760.13;;;18.64;100.00
10006;BME280;5042;42.626;23.382;2023-06-04T07:52:36;94762.34;;;18.68;100.00
10006;BME280;5042;42.626;23.382;2023-06-04T07:55:03;94771.16;;;18.80;100.00
10006;BME280;5042;42.626;23.382;2023-06-04T07:57:31;94767.22;;;18.94;100.00
10006;BME280;5042;42.626;23.382;2023-06-04T07:59:58;94765.16;;;18.96;100.00
10006;BME280;5042;42.626;23.382;2023-06-04T08:02:25;94778.19;;;19.10;100.00
10006;BME280;5042;42.626;23.382;2023-06-04T08:04:52;94771.38;;;19.02;100.00
10006;BME280;5042;42.626;23.382;2023-06-04T08:07:18;94774.84;;;19.02;100.00
10006;BME280;5042;42.626;23.382;2023-06-04T08:09:46;94775.19;;;18.94;100.00
10006;BME280;5042;42.626;23.382;2023-06-04T08:12:15;94769.53;;;19.02;100.00
10006;BME280;5042;42.626;23.382;2023-06-04T08:14:42;94768.13;;;19.12;100.00
10006;BME280;5042;42.626;23.382;2023-06-04T08:17:09;94774.34;;;19.29;100.00
10006;BME280;5042;42.626;23.382;2023-06-04T08:19:36;94767.38;;;19.52;100.00
10006;BME280;5042;42.626;23.382;2023-06-04T08:22:02;94772.56;;;19.70;100.00
10006;BME280;5042;42.626;23.382;2023-06-04T08:24:29;94775.53;;;19.74;100.00
10006;BME280;5042;42.626;23.382;2023-06-04T08:26:58;94774.94;;;19.83;100.00
10006;BME280;5042;42.626;23.382;2023-06-04T08:29:25;94750.34;;;19.64;100.00
10006;BME280;5042;42.626;23.382;2023-06-04T08:31:52;94764.47;;;19.65;100.00
10006;BME280;5042;42.626;23.382;2023-06-04T08:34:18;94776.00;;;19.82;100.00
10006;BME280;5042;42.626;23.382;2023-06-04T08:36:45;94776.09;;;19.87;100.00
10006;BME280;5042;42.626;23.382;2023-06-04T08:39:13;94770.28;;;19.90;100.00
10006;BME280;5042;42.626;23.382;2023-06-04T08:41:43;94775.22;;;19.99;100.00
10006;BME280;5042;42.626;23.382;2023-06-04T08:44:12;94711.41;;;19.58;100.00
10006;BME280;5042;42.626;23.382;2023-06-04T08:46:39;94793.19;;;19.91;100.00
10006;BME280;5042;42.626;23.382;2023-06-04T08:49:07;94793.19;;;19.91;100.00
10006;BME280;5042;42.626;23.382;2023-06-04T08:51:35;94797.59;;;19.86;100.00
10006;BME280;5042;42.626;23.382;2023-06-04T08:54:04;94800.50;;;19.84;100.00
10006;BME280;5042;42.626;23.382;2023-06-04T08:56:33;94800.66;;;20.06;100.00
10006;BME280;5042;42.626;23.382;2023-06-04T08:59:05;94802.41;;;20.01;100.00
10006;BME280;5042;42.626;23.382;2023-06-04T09:01:34;94803.53;;;20.05;100.00
10006;BME280;5042;42.626;23.382;2023-06-04T09:04:04;94807.44;;;20.14;100.00
10006;BME280;5042;42.626;23.382;2023-06-04T09:06:32;94795.75;;;20.15;100.00
10006;BME280;5042;42.626;23.382;2023-06-04T09:09:01;94807.06;;;20.22;100.00
10006;BME280;5042;42.626;23.382;2023-06-04T09:11:33;94806.84;;;19.83;100.00
10006;BME280;5042;42.626;23.382;2023-06-04T09:14:04;94807.53;;;19.90;100.00
10006;BME280;5042;42.626;23.382;2023-06-04T09:16:44;94812.56;;;20.04;100.00
10006;BME280;5042;42.626;23.382;2023-06-04T09:19:10;94815.06;;;19.94;100.00
10006;BME280;5042;42.626;23.382;2023-06-04T09:21:49;94810.72;;;20.04;100.00
10006;BME280;5042;42.626;23.382;2023-06-04T09:24:16;94811.88;;;20.08;100.00
10006;BME280;5042;42.626;23.382;2023-06-04T09:26:42;94811.25;;;20.18;100.00
10006;BME280;5042;42.626;23.382;2023-06-04T09:29:09;94805.06;;;20.29;100.00
10006;BME280;5042;42.626;23.382;2023-06-04T09:31:36;94807.59;;;20.53;100.00
10006;BME280;5042;42.626;23.382;2023-06-04T09:34:07;94809.66;;;20.80;100.00
10006;BME280;5042;42.626;23.382;2023-06-04T09:36:51;94812.88;;;20.99;100.00
10006;BME280;5042;42.626;23.382;2023-06-04T09:39:18;94814.00;;;21.20;100.00
10006;BME280;5042;42.626;23.382;2023-06-04T09:41:57;94821.56;;;21.45;100.00
10006;BME280;5042;42.626;23.382;2023-06-04T09:44:24;94813.94;;;21.53;100.00
10006;BME280;5042;42.626;23.382;2023-06-04T09:46:54;94815.59;;;21.76;100.00
10006;BME280;5042;42.626;23.382;2023-06-04T09:49:23;94814.13;;;21.47;100.00
10006;BME280;5042;42.626;23.382;2023-06-04T09:51:50;94812.25;;;21.47;100.00
10006;BME280;5042;42.626;23.382;2023-06-04T09:54:17;94813.78;;;21.60;100.00
10006;BME280;5042;42.626;23.382;2023-06-04T09:56:44;94815.59;;;21.21;100.00
10006;BME280;5042;42.626;23.382;2023-06-04T09:59:13;94792.66;;;21.20;100.00
10006;BME280;5042;42.626;23.382;2023-06-04T10:01:40;94796.53;;;21.68;100.00
10006;BME280;5042;42.626;23.382;2023-06-04T10:04:09;94800.22;;;22.11;100.00
10006;BME280;5042;42.626;23.382;2023-06-04T10:06:39;94811.50;;;22.72;100.00
10006;BME280;5042;42.626;23.382;2023-06-04T10:09:07;94800.22;;;22.65;100.00
10006;BME280;5042;42.626;23.382;2023-06-04T10:11:36;94775.25;;;22.22;100.00
10006;BME280;5042;42.626;23.382;2023-06-04T10:14:09;94788.78;;;22.70;100.00
10006;BME280;5042;42.626;23.382;2023-06-04T10:16:37;94792.69;;;23.26;100.00
10006;BME280;5042;42.626;23.382;2023-06-04T10:19:07;94792.63;;;23.64;100.00
10006;BME280;5042;42.626;23.382;2023-06-04T10:21:34;94802.75;;;24.15;100.00
10006;BME280;5042;42.626;23.382;2023-06-04T10:24:05;94807.56;;;24.18;100.00
10006;BME280;5042;42.626;23.382;2023-06-04T10:26:33;94799.25;;;24.14;100.00
10006;BME280;5042;42.626;23.382;2023-06-04T10:29:00;94809.97;;;24.09;100.00
10006;BME280;5042;42.626;23.382;2023-06-04T10:31:28;94802.09;;;23.87;100.00
10006;BME280;5042;42.626;23.382;2023-06-04T10:33:55;94807.63;;;23.70;100.00
10006;BME280;5042;42.626;23.382;2023-06-04T10:36:23;94792.63;;;23.16;100.00
10006;BME280;5042;42.626;23.382;2023-06-04T10:38:51;94790.47;;;22.49;100.00
10006;BME280;5042;42.626;23.382;2023-06-04T10:41:21;94779.22;;;22.19;100.00
10006;BME280;5042;42.626;23.382;2023-06-04T10:43:48;94800.81;;;22.18;100.00
10006;BME280;5042;42.626;23.382;2023-06-04T10:46:17;94793.06;;;22.38;100.00
10006;BME280;5042;42.626;23.382;2023-06-04T10:48:48;94793.22;;;22.59;100.00
10006;BME280;5042;42.626;23.382;2023-06-04T10:51:16;94788.91;;;22.26;100.00
10006;BME280;5042;42.626;23.382;2023-06-04T10:53:43;94798.63;;;22.10;100.00
10006;BME280;5042;42.626;23.382;2023-06-04T10:56:10;94790.03;;;22.08;100.00
10006;BME280;5042;42.626;23.382;2023-06-04T10:58:38;94791.03;;;22.01;100.00
10006;BME280;5042;42.626;23.382;2023-06-04T11:01:05;94789.50;;;22.06;100.00
10006;BME280;5042;42.626;23.382;2023-06-04T11:03:36;94780.84;;;22.20;100.00
10006;BME280;5042;42.626;23.382;2023-06-04T11:06:14;94784.25;;;21.67;100.00
10006;BME280;5042;42.626;23.382;2023-06-04T11:08:41;94757.41;;;21.34;100.00
10006;BME280;5042;42.626;23.382;2023-06-04T11:11:11;94782.75;;;21.54;100.00
10006;BME280;5042;42.626;23.382;2023-06-04T11:13:39;94780.81;;;21.49;100.00
10006;BME280;5042;42.626;23.382;2023-06-04T11:16:14;94765.94;;;21.53;100.00
10006;BME280;5042;42.626;23.382;2023-06-04T11:18:42;94790.78;;;21.76;100.00
10006;BME280;5042;42.626;23.382;2023-06-04T11:21:08;94787.78;;;21.50;100.00
10006;BME280;5042;42.626;23.382;2023-06-04T11:23:36;94788.81;;;21.10;100.00
10006;BME280;5042;42.626;23.382;2023-06-04T11:26:03;94788.47;;;21.07;100.00
10006;BME280;5042;42.626;23.382;2023-06-04T11:28:30;94791.03;;;21.18;100.00
10006;BME280;5042;42.626;23.382;2023-06-04T11:30:59;94775.84;;;21.36;100.00
10006;BME280;5042;42.626;23.382;2023-06-04T11:33:28;94785.97;;;21.56;100.00
10006;BME280;5042;42.626;23.382;2023-06-04T11:35:54;94786.31;;;21.59;100.00
10006;BME280;5042;42.626;23.382;2023-06-04T11:38:21;94791.19;;;21.68;100.00
10006;BME280;5042;42.626;23.382;2023-06-04T11:40:55;94780.56;;;21.73;100.00
10006;BME280;5042;42.626;23.382;2023-06-04T11:43:23;94787.28;;;21.53;100.00
10006;BME280;5042;42.626;23.382;2023-06-04T11:45:50;94785.16;;;21.55;100.00
10006;BME280;5042;42.626;23.382;2023-06-04T11:48:18;94790.63;;;21.66;100.00
10006;BME280;5042;42.626;23.382;2023-06-04T11:50:45;94790.00;;;21.58;100.00
10006;BME280;5042;42.626;23.382;2023-06-04T11:53:12;94782.56;;;21.22;100.00
10006;BME280;5042;42.626;23.382;2023-06-04T11:55:39;94787.69;;;21.28;100.00
10006;BME280;5042;42.626;23.382;2023-06-04T11:58:06;94789.09;;;21.31;100.00
10006;BME280;5042;42.626;23.382;2023-06-04T12:00:33;94787.16;;;21.26;100.00
10006;BME280;5042;42.626;23.382;2023-06-04T12:03:00;94787.53;;;21.35;100.00
10006;BME280;5042;42.626;23.382;2023-06-04T12:05:30;94786.97;;;21.33;100.00
10006;BME280;5042;42.626;23.382;2023-06-04T12:08:04;94791.03;;;21.18;100.00
10006;BME280;5042;42.626;23.382;2023-06-04T12:10:37;94794.78;;;21.17;100.00
10006;BME280;5042;42.626;23.382;2023-06-04T12:13:04;94802.53;;;21.19;100.00
10006;BME280;5042;42.626;23.382;2023-06-04T12:15:31;94792.97;;;21.23;100.00
10006;BME280;5042;42.626;23.382;2023-06-04T12:17:58;94799.34;;;21.39;100.00
10006;BME280;5042;42.626;23.382;2023-06-04T12:20:34;94795.97;;;21.27;100.00
10006;BME280;5042;42.626;23.382;2023-06-04T12:23:01;94791.78;;;21.31;100.00
10006;BME280;5042;42.626;23.382;2023-06-04T12:25:28;94789.75;;;21.21;100.00
10006;BME280;5042;42.626;23.382;2023-06-04T12:27:56;94801.13;;;21.16;100.00
10006;BME280;5042;42.626;23.382;2023-06-04T12:30:35;94800.50;;;21.09;100.00
10006;BME280;5042;42.626;23.382;2023-06-04T12:33:02;94792.78;;;20.91;100.00
10006;BME280;5042;42.626;23.382;2023-06-04T12:35:28;94802.53;;;21.02;100.00
10006;BME280;5042;42.626;23.382;2023-06-04T12:37:57;94799.00;;;20.80;100.00
10006;BME280;5042;42.626;23.382;2023-06-04T12:40:23;94800.75;;;20.57;100.00
10006;BME280;5042;42.626;23.382;2023-06-04T12:42:50;94787.81;;;20.32;100.00
10006;BME280;5042;42.626;23.382;2023-06-04T12:45:17;94794.28;;;20.36;100.00
10006;BME280;5042;42.626;23.382;2023-06-04T12:47:44;94791.75;;;20.29;100.00
10006;BME280;5042;42.626;23.382;2023-06-04T12:50:12;94788.88;;;20.48;100.00
10006;BME280;5042;42.626;23.382;2023-06-04T12:52:38;94794.47;;;20.63;100.00
10006;BME280;5042;42.626;23.382;2023-06-04T12:55:08;94794.63;;;20.73;100.00